Time;durP1;ratioP1;P1;durP2;ratioP2;P2;SDS_P1;SDS_P2;PMS_P1;PMS_P2;Temp;Humidity;BMP_temperature;BMP_pressure;BME280_temperature;BME280_humidity;BME280_pressure;Samples;Min_cycle;Max_cycle;Signal;HPM_P1;HPM_P2
2020/12/31 00:02:06;;;;;;;24.07;21.73;;;5.00;99.90;;;;;;5033982;28;20459;-64
2020/12/31 00:04:33;;;;;;;24.77;22.47;;;5.00;99.90;;;;;;5043823;28;20505;-64
2020/12/31 00:06:59;;;;;;;25.10;22.60;;;5.00;99.90;;;;;;5047216;28;20468;-64
2020/12/31 00:09:25;;;;;;;22.40;20.30;;;5.00;99.90;;;;;;5020495;28;20465;-66
2020/12/31 00:11:52;;;;;;;22.77;20.53;;;5.00;99.90;;;;;;5026249;28;20460;-67
2020/12/31 00:14:18;;;;;;;24.43;22.17;;;5.00;99.90;;;;;;5024359;28;20929;-64
2020/12/31 00:16:44;;;;;;;22.80;20.70;;;5.00;99.90;;;;;;5045317;28;20467;-66
2020/12/31 00:19:10;;;;;;;23.23;20.90;;;5.10;99.90;;;;;;5039527;28;20455;-65
2020/12/31 00:21:37;;;;;;;24.80;22.40;;;5.10;99.90;;;;;;5044207;28;20543;-64
2020/12/31 00:24:04;;;;;;;23.60;21.40;;;5.10;99.90;;;;;;5034765;28;20537;-65
2020/12/31 00:26:31;;;;;;;25.03;22.60;;;5.10;99.90;;;;;;5038130;28;20535;-63
2020/12/31 00:28:57;;;;;;;24.23;21.90;;;5.10;99.90;;;;;;5036455;28;20464;-63
2020/12/31 00:31:23;;;;;;;22.23;20.33;;;5.10;99.90;;;;;;5029170;28;20453;-63
2020/12/31 00:33:50;;;;;;;26.37;24.17;;;5.10;99.90;;;;;;5039998;28;21043;-63
2020/12/31 00:36:16;;;;;;;24.17;21.73;;;5.10;99.90;;;;;;5032173;28;20615;-64
2020/12/31 00:38:43;;;;;;;24.13;21.80;;;5.10;99.90;;;;;;5032841;28;20465;-65
2020/12/31 00:41:10;;;;;;;23.33;21.07;;;5.10;99.90;;;;;;5032979;28;20468;-63
2020/12/31 00:43:36;;;;;;;24.73;22.53;;;5.20;99.90;;;;;;5033152;28;20469;-64
2020/12/31 00:46:02;;;;;;;25.00;22.70;;;5.10;99.90;;;;;;5048193;28;20844;-64
2020/12/31 00:48:28;;;;;;;25.37;22.70;;;5.10;99.90;;;;;;5037270;28;20456;-65
2020/12/31 00:50:55;;;;;;;23.33;21.33;;;5.10;99.90;;;;;;5043217;28;20460;-66
2020/12/31 00:53:21;;;;;;;22.50;20.23;;;5.10;99.90;;;;;;5035262;28;20484;-67
2020/12/31 00:55:48;;;;;;;22.77;20.67;;;5.10;99.90;;;;;;5043249;28;20484;-63
2020/12/31 00:58:14;;;;;;;22.37;20.40;;;5.10;99.90;;;;;;5037687;28;20551;-68
2020/12/31 01:00:41;;;;;;;22.43;20.43;;;5.20;99.90;;;;;;5034896;28;20551;-66
2020/12/31 01:03:08;;;;;;;22.17;20.17;;;5.20;99.90;;;;;;5043089;28;20490;-66
2020/12/31 01:05:35;;;;;;;22.10;20.20;;;5.10;99.90;;;;;;5045210;28;20456;-68
2020/12/31 01:08:01;;;;;;;22.47;20.37;;;5.10;99.90;;;;;;5037025;28;20469;-66
2020/12/31 01:10:27;;;;;;;21.50;19.50;;;5.10;99.90;;;;;;5030136;28;20806;-67
2020/12/31 01:12:54;;;;;;;22.73;20.83;;;5.20;99.90;;;;;;5013151;28;20473;-67
2020/12/31 01:15:21;;;;;;;21.03;18.93;;;5.10;99.90;;;;;;5025390;28;20483;-67
2020/12/31 01:17:47;;;;;;;20.80;18.90;;;5.00;99.90;;;;;;5033489;28;20847;-65
2020/12/31 01:20:13;;;;;;;20.33;18.60;;;5.00;99.90;;;;;;5032690;28;20453;-66
2020/12/31 01:22:40;;;;;;;18.13;16.37;;;5.00;99.90;;;;;;5028676;28;20508;-64
2020/12/31 01:25:06;;;;;;;18.87;17.27;;;5.00;99.90;;;;;;5032129;28;20492;-64
2020/12/31 01:27:32;;;;;;;17.80;16.10;;;4.90;99.90;;;;;;5042433;28;20460;-64
2020/12/31 01:29:59;;;;;;;19.03;16.87;;;5.00;99.90;;;;;;5038031;28;20467;-63
2020/12/31 01:32:26;;;;;;;17.53;15.83;;;5.00;99.90;;;;;;5039434;28;20947;-64
2020/12/31 01:34:52;;;;;;;18.80;17.10;;;5.00;99.90;;;;;;5036689;28;20475;-64
2020/12/31 01:37:20;;;;;;;18.23;16.53;;;5.00;99.90;;;;;;5046310;28;20525;-63
2020/12/31 01:39:47;;;;;;;18.87;17.27;;;5.00;99.90;;;;;;5046086;28;20467;-63
2020/12/31 01:42:13;;;;;;;17.77;16.13;;;4.90;99.90;;;;;;5044424;28;20465;-64
2020/12/31 01:44:40;;;;;;;18.40;16.73;;;4.90;99.90;;;;;;5031824;28;20472;-66
2020/12/31 01:47:09;;;;;;;18.17;16.60;;;4.90;99.90;;;;;;5033743;28;20812;-63
2020/12/31 01:49:36;;;;;;;16.40;14.90;;;5.00;99.90;;;;;;5032298;28;20455;-63
2020/12/31 01:52:03;;;;;;;17.53;15.77;;;5.00;99.90;;;;;;5035764;28;20473;-63
2020/12/31 01:54:30;;;;;;;16.73;15.23;;;4.90;99.90;;;;;;5040922;28;20465;-64
2020/12/31 01:56:57;;;;;;;16.40;14.80;;;5.00;99.90;;;;;;5051316;28;20810;-64
2020/12/31 01:59:25;;;;;;;17.20;15.70;;;5.00;99.90;;;;;;5037546;28;20523;-64
2020/12/31 02:01:52;;;;;;;16.83;15.30;;;4.90;99.90;;;;;;5031850;28;20448;-69
2020/12/31 02:04:20;;;;;;;16.20;14.80;;;4.90;99.90;;;;;;5034468;28;21017;-66
2020/12/31 02:06:47;;;;;;;18.00;16.43;;;4.90;99.90;;;;;;5049412;28;20460;-64
2020/12/31 02:09:13;;;;;;;17.63;15.80;;;4.90;99.90;;;;;;5028276;28;20947;-64
2020/12/31 02:11:40;;;;;;;19.80;18.10;;;4.90;99.90;;;;;;5030988;28;20465;-63
2020/12/31 02:14:06;;;;;;;19.67;17.70;;;4.90;99.90;;;;;;5037118;28;20487;-66
2020/12/31 02:16:35;;;;;;;20.63;18.53;;;4.80;99.90;;;;;;5031649;28;20534;-65
2020/12/31 02:19:05;;;;;;;20.07;18.17;;;4.90;99.90;;;;;;5026358;28;21050;-65
2020/12/31 02:21:34;;;;;;;20.47;18.43;;;4.90;99.90;;;;;;5031329;28;20827;-64
2020/12/31 02:24:03;;;;;;;21.63;19.37;;;4.80;99.90;;;;;;5030480;28;20488;-64
2020/12/31 02:26:31;;;;;;;20.00;18.10;;;4.80;99.90;;;;;;5046915;28;20482;-65
2020/12/31 02:28:58;;;;;;;20.53;18.63;;;4.80;99.90;;;;;;5037511;28;20464;-64
2020/12/31 02:31:26;;;;;;;19.20;17.40;;;4.80;99.90;;;;;;5035384;28;20451;-66
2020/12/31 02:33:53;;;;;;;21.67;19.43;;;4.80;99.90;;;;;;5031404;28;20480;-64
2020/12/31 02:36:21;;;;;;;22.70;20.30;;;4.80;99.90;;;;;;5031101;28;20495;-64
2020/12/31 02:38:47;;;;;;;22.23;20.13;;;4.80;99.90;;;;;;5042958;28;20461;-64
2020/12/31 02:41:15;;;;;;;22.60;20.40;;;4.70;99.90;;;;;;5039162;28;20525;-63
2020/12/31 02:43:42;;;;;;;24.70;22.27;;;4.70;99.90;;;;;;5038137;28;20491;-65
2020/12/31 02:46:10;;;;;;;23.63;21.33;;;4.60;99.90;;;;;;5043503;28;20489;-63
2020/12/31 02:48:36;;;;;;;23.97;21.67;;;4.60;99.90;;;;;;5043704;28;20453;-64
2020/12/31 02:51:03;;;;;;;24.80;22.20;;;4.60;99.90;;;;;;5030583;28;20464;-63
2020/12/31 02:53:30;;;;;;;25.13;22.73;;;4.60;99.90;;;;;;5038277;28;20990;-64
2020/12/31 02:55:56;;;;;;;24.60;22.20;;;4.60;99.90;;;;;;5037156;28;21010;-64
2020/12/31 02:58:23;;;;;;;25.27;22.70;;;4.60;99.90;;;;;;5030602;28;20459;-65
2020/12/31 03:00:50;;;;;;;24.60;22.00;;;4.60;99.90;;;;;;5038064;28;20967;-64
2020/12/31 03:03:17;;;;;;;25.27;22.67;;;4.60;99.90;;;;;;5034391;28;20468;-64
2020/12/31 03:05:43;;;;;;;25.37;22.77;;;4.60;99.90;;;;;;5038529;28;20468;-64
2020/12/31 03:08:10;;;;;;;25.43;22.73;;;4.60;99.90;;;;;;5030348;28;20495;-63
2020/12/31 03:10:36;;;;;;;28.27;24.90;;;4.60;99.90;;;;;;5031235;28;20449;-63
2020/12/31 03:13:02;;;;;;;27.07;24.43;;;4.60;99.90;;;;;;5033700;28;20491;-63
2020/12/31 03:15:29;;;;;;;30.27;27.17;;;4.50;99.90;;;;;;5045385;28;20483;-66
2020/12/31 03:17:56;;;;;;;27.83;24.90;;;4.50;99.90;;;;;;5041018;28;20851;-65
2020/12/31 03:20:22;;;;;;;28.33;25.30;;;4.50;99.90;;;;;;5031076;28;20833;-66
2020/12/31 03:22:48;;;;;;;28.40;25.60;;;4.40;99.90;;;;;;5030743;28;20905;-66
2020/12/31 03:25:14;;;;;;;30.57;26.83;;;4.50;99.90;;;;;;5033650;28;20463;-66
2020/12/31 03:27:41;;;;;;;30.93;27.63;;;4.50;99.90;;;;;;5030994;28;20968;-66
2020/12/31 03:30:07;;;;;;;31.70;28.30;;;4.50;99.90;;;;;;5032739;28;20465;-66
2020/12/31 03:32:34;;;;;;;30.43;27.33;;;4.40;99.90;;;;;;5046032;28;20474;-66
2020/12/31 03:35:01;;;;;;;29.40;26.30;;;4.50;99.90;;;;;;5029139;28;20484;-66
2020/12/31 03:37:27;;;;;;;30.33;27.37;;;4.50;99.90;;;;;;5041822;28;20522;-66
2020/12/31 03:39:53;;;;;;;28.30;25.07;;;4.50;99.90;;;;;;5033834;28;20472;-66
2020/12/31 03:42:20;;;;;;;32.70;29.50;;;4.50;99.90;;;;;;5040028;28;20465;-67
2020/12/31 03:44:46;;;;;;;31.00;27.70;;;4.40;99.90;;;;;;5037245;28;20951;-67
2020/12/31 03:47:13;;;;;;;30.20;27.13;;;4.50;99.90;;;;;;5048887;28;20959;-66
2020/12/31 03:49:40;;;;;;;29.00;25.90;;;4.60;99.90;;;;;;5034004;28;20460;-67
2020/12/31 03:52:07;;;;;;;30.03;26.67;;;4.50;99.90;;;;;;5034354;28;20525;-66
2020/12/31 03:54:33;;;;;;;32.90;29.70;;;4.50;99.90;;;;;;5038069;28;21016;-67
2020/12/31 03:56:59;;;;;;;31.00;27.70;;;4.40;99.90;;;;;;5039257;28;20557;-66
2020/12/31 03:59:25;;;;;;;31.73;28.30;;;4.40;99.90;;;;;;5036138;28;20468;-67
2020/12/31 04:01:52;;;;;;;28.90;25.77;;;4.40;99.90;;;;;;5040815;28;20452;-66
2020/12/31 04:04:18;;;;;;;33.63;29.73;;;4.50;99.90;;;;;;5045789;28;20484;-66
2020/12/31 04:06:45;;;;;;;35.93;32.33;;;4.40;99.90;;;;;;5049766;28;20469;-66
2020/12/31 04:09:11;;;;;;;34.87;31.57;;;4.20;99.90;;;;;;5041593;28;21391;-66
2020/12/31 04:11:37;;;;;;;34.83;31.17;;;4.20;99.90;;;;;;5034511;28;20819;-66
2020/12/31 04:14:04;;;;;;;36.13;32.63;;;4.10;99.90;;;;;;5037316;28;20485;-66
2020/12/31 04:16:30;;;;;;;35.60;32.23;;;4.10;99.90;;;;;;5035459;28;20492;-66
2020/12/31 04:18:56;;;;;;;34.80;31.30;;;4.10;99.90;;;;;;5045684;28;20473;-66
2020/12/31 04:21:22;;;;;;;34.03;30.93;;;4.10;99.90;;;;;;5034724;28;20464;-66
2020/12/31 04:23:50;;;;;;;36.43;32.73;;;4.10;99.90;;;;;;5049189;28;20487;-66
2020/12/31 04:26:16;;;;;;;35.40;32.03;;;4.10;99.90;;;;;;5043245;28;20807;-66
2020/12/31 04:28:42;;;;;;;32.40;29.30;;;4.10;99.90;;;;;;5034586;28;20467;-66
2020/12/31 04:31:09;;;;;;;33.00;29.80;;;4.10;99.90;;;;;;5034168;28;20491;-66
2020/12/31 04:33:35;;;;;;;34.73;31.13;;;4.10;99.90;;;;;;5047543;28;20609;-66
2020/12/31 04:36:01;;;;;;;33.87;30.57;;;4.10;99.90;;;;;;5048506;28;21037;-66
2020/12/31 04:38:28;;;;;;;34.00;30.70;;;4.10;99.90;;;;;;5016775;28;20457;-65
2020/12/31 04:40:55;;;;;;;34.80;31.50;;;4.10;99.90;;;;;;5034351;28;20440;-67
2020/12/31 04:43:21;;;;;;;33.47;30.23;;;4.10;99.90;;;;;;5030951;28;20483;-67
2020/12/31 04:45:49;;;;;;;34.23;30.83;;;4.10;99.90;;;;;;5035099;28;20488;-65
2020/12/31 04:48:25;;;;;;;33.87;30.60;;;4.10;99.90;;;;;;5033595;28;20475;-67
2020/12/31 04:50:58;;;;;;;33.93;30.73;;;4.10;99.90;;;;;;5033011;28;20436;-67
2020/12/31 04:53:25;;;;;;;36.00;32.50;;;4.10;99.90;;;;;;5032710;28;20484;-66
2020/12/31 04:55:52;;;;;;;35.13;31.63;;;4.10;99.90;;;;;;5036355;28;20982;-67
2020/12/31 04:58:19;;;;;;;36.53;32.83;;;4.10;99.90;;;;;;5032856;28;20452;-65
2020/12/31 05:00:46;;;;;;;35.17;31.60;;;4.10;99.90;;;;;;5031868;28;20495;-67
2020/12/31 05:03:13;;;;;;;33.97;30.67;;;4.00;99.90;;;;;;5032749;28;20492;-67
2020/12/31 05:05:39;;;;;;;35.17;31.67;;;4.00;99.90;;;;;;5042863;28;20453;-67
2020/12/31 05:08:08;;;;;;;35.20;31.90;;;4.00;99.90;;;;;;5038033;28;20451;-67
2020/12/31 05:10:34;;;;;;;33.43;30.13;;;4.00;99.90;;;;;;5033172;28;20563;-67
2020/12/31 05:13:02;;;;;;;34.27;30.87;;;4.00;99.90;;;;;;5038115;28;20922;-66
2020/12/31 05:15:39;;;;;;;33.23;30.00;;;3.90;99.90;;;;;;5035270;28;20487;-66
2020/12/31 05:18:19;;;;;;;34.13;30.93;;;3.90;99.90;;;;;;5031966;28;20464;-64
2020/12/31 05:20:46;;;;;;;37.17;33.63;;;3.90;99.90;;;;;;5032479;28;21558;-64
2020/12/31 05:23:14;;;;;;;35.43;32.00;;;3.90;99.90;;;;;;5024439;28;20536;-66
2020/12/31 05:25:40;;;;;;;35.60;32.10;;;3.90;99.90;;;;;;5015032;28;20452;-64
2020/12/31 05:28:22;;;;;;;34.70;31.33;;;3.90;99.90;;;;;;5028313;28;21014;-66
2020/12/31 05:30:50;;;;;;;35.37;31.97;;;3.80;99.90;;;;;;5014310;28;20462;-64
2020/12/31 05:33:25;;;;;;;36.10;32.50;;;3.90;99.90;;;;;;5040527;28;20915;-63
2020/12/31 05:35:51;;;;;;;37.33;33.63;;;3.90;99.90;;;;;;5070702;22;21001;-66
2020/12/31 05:38:21;;;;;;;36.77;33.10;;;3.90;99.90;;;;;;5051704;28;20527;-66
2020/12/31 05:41:06;;;;;;;38.33;34.33;;;3.90;99.90;;;;;;5048443;28;20529;-65
2020/12/31 05:43:32;;;;;;;37.10;33.50;;;3.90;99.90;;;;;;5036568;28;20482;-64
2020/12/31 05:46:07;;;;;;;36.83;33.10;;;3.90;99.90;;;;;;5051353;28;20490;-65
2020/12/31 05:48:34;;;;;;;36.80;33.20;;;3.90;99.90;;;;;;5051376;28;20509;-65
2020/12/31 05:51:19;;;;;;;36.10;32.17;;;3.90;99.90;;;;;;5044241;28;20467;-65
2020/12/31 05:53:48;;;;;;;35.67;31.97;;;3.80;99.90;;;;;;5043353;28;20732;-65
2020/12/31 05:56:16;;;;;;;36.07;32.43;;;3.80;99.90;;;;;;5036269;28;20501;-65
2020/12/31 05:58:45;;;;;;;37.20;33.30;;;3.80;99.90;;;;;;5048163;28;20476;-63
2020/12/31 06:01:14;;;;;;;34.87;31.33;;;3.70;99.90;;;;;;5043089;28;20488;-69
2020/12/31 06:03:47;;;;;;;37.40;33.80;;;3.70;99.90;;;;;;5041411;28;20459;-66
2020/12/31 06:06:18;;;;;;;39.03;35.00;;;3.70;99.90;;;;;;5038870;28;20484;-65
2020/12/31 06:08:54;;;;;;;38.03;34.07;;;3.70;99.90;;;;;;5050367;28;20479;-65
2020/12/31 06:11:30;;;;;;;38.00;34.17;;;3.70;99.90;;;;;;5043892;28;20470;-64
2020/12/31 06:13:57;;;;;;;38.27;34.30;;;3.70;99.90;;;;;;5033539;28;20468;-64
2020/12/31 06:16:27;;;;;;;37.27;33.43;;;3.60;99.90;;;;;;5045561;28;20506;-65
2020/12/31 06:19:01;;;;;;;38.80;34.80;;;3.70;99.90;;;;;;5036163;28;20477;-65
2020/12/31 06:21:40;;;;;;;37.60;33.90;;;3.60;99.90;;;;;;5049386;28;20455;-64
2020/12/31 06:24:11;;;;;;;38.33;34.33;;;3.60;99.90;;;;;;5045872;28;20826;-65
2020/12/31 06:26:40;;;;;;;35.57;31.93;;;3.60;99.90;;;;;;5049834;28;20506;-65
2020/12/31 06:29:07;;;;;;;36.30;32.43;;;3.60;99.90;;;;;;5044934;28;20452;-70
2020/12/31 06:31:41;;;;;;;37.00;33.23;;;3.70;99.90;;;;;;5045081;28;20482;-65
2020/12/31 06:34:08;;;;;;;36.20;32.30;;;3.60;99.90;;;;;;5033871;28;20490;-66
2020/12/31 06:36:35;;;;;;;37.67;32.10;;;3.60;99.90;;;;;;5034542;28;20502;-65
2020/12/31 06:39:03;;;;;;;35.10;31.47;;;3.60;99.90;;;;;;5043675;28;20990;-66
2020/12/31 06:41:40;;;;;;;36.17;32.40;;;3.60;99.90;;;;;;5046919;28;20467;-65
2020/12/31 06:44:07;;;;;;;37.13;32.97;;;3.50;99.90;;;;;;5033422;28;20448;-65
2020/12/31 06:46:40;;;;;;;38.53;34.20;;;3.60;99.90;;;;;;5044835;28;20525;-65
2020/12/31 06:49:07;;;;;;;36.80;33.00;;;3.50;99.90;;;;;;5039187;28;21014;-67
2020/12/31 06:51:33;;;;;;;37.23;33.43;;;3.50;99.90;;;;;;5043803;28;20464;-65
2020/12/31 06:54:00;;;;;;;34.07;30.67;;;3.50;99.90;;;;;;5034043;28;20552;-65
2020/12/31 06:56:45;;;;;;;37.73;33.90;;;3.50;99.90;;;;;;5048420;28;21017;-67
2020/12/31 06:59:28;;;;;;;35.33;31.47;;;3.40;99.90;;;;;;5038206;28;20456;-65
2020/12/31 07:01:56;;;;;;;37.70;32.23;;;3.40;99.90;;;;;;5045626;28;20448;-65
2020/12/31 07:04:31;;;;;;;39.03;34.93;;;3.40;99.90;;;;;;5039262;28;20556;-66
2020/12/31 07:06:57;;;;;;;36.60;32.90;;;3.30;99.90;;;;;;5037837;28;20474;-65
2020/12/31 07:09:35;;;;;;;36.00;32.30;;;3.30;99.90;;;;;;5039287;28;20510;-65
2020/12/31 07:12:04;;;;;;;36.40;32.60;;;3.30;99.90;;;;;;5036461;28;20454;-66
2020/12/31 07:14:32;;;;;;;36.30;32.50;;;3.30;99.90;;;;;;5037406;28;20559;-66
2020/12/31 07:17:02;;;;;;;36.43;32.43;;;3.30;99.90;;;;;;5040399;28;20488;-66
2020/12/31 07:19:39;;;;;;;34.40;30.93;;;3.30;99.90;;;;;;5041336;28;20452;-66
2020/12/31 07:22:26;;;;;;;35.80;32.10;;;3.40;99.90;;;;;;5040530;28;21023;-66
2020/12/31 07:24:54;;;;;;;32.70;29.37;;;3.40;99.90;;;;;;5048789;28;20467;-66
2020/12/31 07:27:27;;;;;;;31.07;28.10;;;3.40;99.90;;;;;;5047108;28;20548;-66
2020/12/31 07:29:58;;;;;;;36.30;31.60;;;3.40;99.90;;;;;;5053444;28;20536;-66
2020/12/31 07:32:54;;;;;;;33.23;29.83;;;3.40;99.90;;;;;;5049734;28;20456;-66
2020/12/31 07:35:43;;;;;;;9.90;6.97;;;3.50;99.90;;;;;;5046926;28;20491;-68
2020/12/31 07:38:11;;;;;;;10.33;8.60;;;5.50;99.90;;;;;;5052711;28;21107;-68
2020/12/31 07:40:40;;;;;;;10.23;7.70;;;11.00;99.90;;;;;;5045690;28;20455;-68
2020/12/31 07:43:08;;;;;;;11.23;8.10;;;13.10;99.90;;;;;;5049315;28;20474;-68
2020/12/31 07:45:35;;;;;;;9.00;8.10;;;14.70;99.90;;;;;;5044379;28;20484;-67
2020/12/31 07:48:01;;;;;;;9.23;8.33;;;16.00;99.90;;;;;;5040151;28;20544;-68
2020/12/31 07:50:28;;;;;;;9.73;8.73;;;17.20;99.90;;;;;;5039854;28;20468;-68
2020/12/31 07:52:55;;;;;;;12.47;11.33;;;17.60;99.90;;;;;;5035477;28;20459;-70
2020/12/31 07:55:22;;;;;;;8.67;7.77;;;17.60;99.90;;;;;;5042783;28;20488;-70
2020/12/31 07:57:49;;;;;;;10.13;8.10;;;18.20;99.90;;;;;;5036131;28;20485;-70
2020/12/31 08:00:17;;;;;;;8.60;7.70;;;18.90;99.90;;;;;;5054243;28;21151;-70
2020/12/31 08:02:46;;;;;;;9.17;7.90;;;19.30;99.90;;;;;;5037890;28;20514;-70
2020/12/31 08:05:14;;;;;;;8.13;7.30;;;19.10;99.90;;;;;;5046089;28;20478;-71
2020/12/31 08:07:41;;;;;;;7.73;7.03;;;19.40;99.90;;;;;;5047686;28;20531;-69
2020/12/31 08:10:08;;;;;;;8.97;8.17;;;19.50;99.90;;;;;;5049919;28;20940;-70
2020/12/31 08:12:35;;;;;;;8.23;7.53;;;19.70;99.90;;;;;;5038415;28;20483;-71
2020/12/31 08:15:01;;;;;;;9.43;8.53;;;19.80;99.90;;;;;;5046065;28;20458;-72
2020/12/31 08:17:28;;;;;;;7.47;6.87;;;19.90;99.90;;;;;;5050571;28;21313;-72
2020/12/31 08:19:56;;;;;;;7.90;7.20;;;19.30;99.90;;;;;;5047358;28;20462;-72
2020/12/31 08:22:32;;;;;;;7.60;6.70;;;19.50;99.90;;;;;;5041834;28;20457;-72
2020/12/31 08:25:03;;;;;;;6.97;6.37;;;19.80;99.90;;;;;;5048136;28;20455;-72
2020/12/31 08:27:30;;;;;;;6.77;6.20;;;19.90;99.90;;;;;;5053657;28;20965;-72
2020/12/31 08:29:58;;;;;;;7.20;6.60;;;19.90;99.90;;;;;;5041728;28;20463;-72
2020/12/31 08:32:26;;;;;;;8.67;7.97;;;19.80;99.90;;;;;;5042993;28;20449;-73
2020/12/31 08:34:55;;;;;;;8.30;7.67;;;19.80;99.90;;;;;;5040068;28;20840;-72
2020/12/31 08:37:23;;;;;;;8.37;7.20;;;19.60;99.90;;;;;;5042552;28;21069;-72
2020/12/31 08:39:51;;;;;;;6.60;6.00;;;19.10;99.90;;;;;;5050504;28;20475;-72
2020/12/31 08:42:20;;;;;;;6.30;5.70;;;19.60;99.90;;;;;;5042601;28;20522;-71
2020/12/31 08:44:51;;;;;;;8.13;5.17;;;19.80;99.90;;;;;;5040905;28;20979;-70
2020/12/31 08:47:18;;;;;;;5.57;5.10;;;20.10;99.90;;;;;;5050727;28;20480;-71
2020/12/31 08:49:51;;;;;;;7.43;6.80;;;20.20;99.90;;;;;;5049551;28;20518;-70
2020/12/31 08:52:17;;;;;;;7.67;5.87;;;18.70;99.90;;;;;;5046699;28;21000;-73
2020/12/31 08:54:44;;;;;;;5.60;5.10;;;19.10;99.90;;;;;;5035906;28;20657;-72
2020/12/31 08:57:17;;;;;;;6.60;5.90;;;19.40;99.90;;;;;;5049519;28;20498;-72
2020/12/31 08:59:43;;;;;;;7.30;6.70;;;19.40;99.90;;;;;;5038889;28;20445;-72
2020/12/31 09:02:12;;;;;;;6.07;5.57;;;19.00;99.90;;;;;;5035624;28;20975;-71
2020/12/31 09:04:38;;;;;;;5.43;4.93;;;19.00;99.90;;;;;;5046914;28;20459;-72
2020/12/31 09:07:10;;;;;;;5.33;4.93;;;19.10;99.90;;;;;;5041511;28;20987;-72
2020/12/31 09:09:37;;;;;;;5.30;4.90;;;18.80;99.90;;;;;;5034116;28;20479;-72
2020/12/31 09:12:05;;;;;;;6.37;3.47;;;18.90;99.90;;;;;;5048080;28;20457;-70
2020/12/31 09:14:35;;;;;;;6.63;3.13;;;19.30;99.90;;;;;;5033266;28;20856;-71
2020/12/31 09:17:19;;;;;;;4.97;3.90;;;19.70;99.90;;;;;;5040526;28;20511;-71
2020/12/31 09:19:50;;;;;;;4.47;4.00;;;19.80;99.90;;;;;;5043486;28;20447;-71
2020/12/31 09:22:16;;;;;;;4.70;4.30;;;19.50;99.90;;;;;;5044509;28;20474;-71
2020/12/31 09:24:43;;;;;;;4.43;4.03;;;19.80;99.90;;;;;;5046839;28;20466;-71
2020/12/31 09:27:09;;;;;;;5.40;5.00;;;19.30;99.90;;;;;;5053236;28;20467;-71
2020/12/31 09:29:36;;;;;;;5.67;5.27;;;19.40;99.90;;;;;;5052887;28;20474;-71
2020/12/31 09:32:02;;;;;;;5.00;4.60;;;19.30;99.90;;;;;;5048306;28;20453;-70
2020/12/31 09:34:29;;;;;;;3.87;3.57;;;19.70;99.90;;;;;;5033840;28;20463;-71
2020/12/31 09:36:59;;;;;;;4.40;4.10;;;19.70;99.90;;;;;;5034004;28;20485;-71
2020/12/31 09:39:26;;;;;;;4.97;4.57;;;19.30;99.90;;;;;;5033117;28;20818;-71
2020/12/31 09:41:52;;;;;;;5.43;4.83;;;18.90;99.90;;;;;;5032543;28;20518;-70
2020/12/31 09:44:19;;;;;;;3.93;3.63;;;18.80;99.90;;;;;;5035084;28;20445;-72
2020/12/31 09:46:47;;;;;;;4.60;4.20;;;19.40;99.90;;;;;;5037403;28;20529;-70
2020/12/31 09:49:14;;;;;;;4.77;4.33;;;19.20;99.90;;;;;;5046867;28;20478;-70
2020/12/31 09:51:40;;;;;;;6.47;5.97;;;19.30;99.90;;;;;;5049113;28;20539;-70
2020/12/31 09:54:06;;;;;;;4.63;4.30;;;18.80;99.90;;;;;;5032371;28;20520;-70
2020/12/31 09:56:32;;;;;;;3.90;3.60;;;18.90;99.90;;;;;;5041182;28;20521;-70
2020/12/31 09:58:59;;;;;;;3.87;3.47;;;19.10;99.90;;;;;;5052140;28;20513;-71
2020/12/31 10:01:25;;;;;;;3.90;3.60;;;19.10;99.90;;;;;;5051340;28;20823;-72
2020/12/31 10:03:53;;;;;;;3.97;3.67;;;18.40;99.90;;;;;;5047789;28;20951;-72
2020/12/31 10:06:19;;;;;;;3.70;3.40;;;19.10;99.90;;;;;;5044357;28;20484;-68
2020/12/31 10:08:47;;;;;;;4.13;3.80;;;17.70;99.90;;;;;;5038287;28;20452;-69
2020/12/31 10:11:13;;;;;;;4.30;4.00;;;18.20;99.90;;;;;;5031918;28;20544;-69
2020/12/31 10:13:39;;;;;;;3.90;3.60;;;18.60;99.90;;;;;;5050095;28;20456;-68
2020/12/31 10:16:05;;;;;;;3.83;3.53;;;18.40;99.90;;;;;;5052189;28;20830;-69
2020/12/31 10:18:32;;;;;;;4.40;4.00;;;18.30;99.90;;;;;;5033304;28;20457;-69
2020/12/31 10:20:59;;;;;;;3.90;3.60;;;18.40;99.90;;;;;;5032206;28;20514;-69
2020/12/31 10:23:25;;;;;;;4.83;4.50;;;18.90;99.90;;;;;;5046372;28;20456;-69
2020/12/31 10:25:52;;;;;;;3.30;3.00;;;18.70;99.90;;;;;;5035169;28;20491;-68
2020/12/31 10:28:19;;;;;;;3.90;3.60;;;18.80;99.90;;;;;;5045505;28;20460;-68
2020/12/31 10:30:45;;;;;;;3.80;3.50;;;18.80;99.90;;;;;;5040265;28;20452;-68
2020/12/31 10:33:11;;;;;;;3.80;3.50;;;19.00;99.90;;;;;;5045073;28;20444;-69
2020/12/31 10:35:38;;;;;;;3.67;3.37;;;18.90;99.90;;;;;;5051327;28;20471;-70
2020/12/31 10:38:05;;;;;;;4.10;3.80;;;19.40;99.90;;;;;;5036633;28;20447;-69
2020/12/31 10:40:31;;;;;;;4.43;3.90;;;19.50;99.90;;;;;;5040604;28;20867;-69
2020/12/31 10:42:58;;;;;;;4.80;4.40;;;19.80;99.90;;;;;;5040679;28;20510;-69
2020/12/31 10:45:24;;;;;;;3.80;3.40;;;20.00;99.90;;;;;;5033788;28;20469;-69
2020/12/31 10:47:50;;;;;;;4.13;3.83;;;19.50;99.90;;;;;;5035408;28;20441;-70
2020/12/31 10:50:17;;;;;;;3.53;3.23;;;19.70;99.90;;;;;;5048403;28;20455;-69
2020/12/31 10:52:43;;;;;;;8.40;3.80;;;19.80;99.90;;;;;;5039734;28;20452;-74
2020/12/31 10:55:10;;;;;;;11.43;10.63;;;19.90;99.90;;;;;;5048178;28;20451;-65
2020/12/31 10:57:37;;;;;;;13.33;12.33;;;8.60;99.90;;;;;;5036526;28;20474;-64
2020/12/31 11:00:03;;;;;;;13.40;12.40;;;6.10;99.90;;;;;;5043891;28;20448;-64
2020/12/31 11:02:29;;;;;;;13.83;12.67;;;5.30;99.90;;;;;;5035866;28;20840;-65
2020/12/31 11:04:56;;;;;;;14.20;13.10;;;4.90;99.90;;;;;;5042784;28;20465;-64
2020/12/31 11:07:22;;;;;;;12.53;11.50;;;4.70;99.90;;;;;;5046923;28;20483;-64
2020/12/31 11:09:48;;;;;;;14.70;13.50;;;4.60;99.90;;;;;;5035036;28;20465;-64
2020/12/31 11:12:15;;;;;;;14.10;12.90;;;4.50;99.90;;;;;;5045532;28;20585;-64
2020/12/31 11:14:42;;;;;;;13.20;12.10;;;4.40;99.90;;;;;;5034701;28;20452;-65
2020/12/31 11:17:08;;;;;;;11.97;11.00;;;4.40;99.90;;;;;;5037468;28;20471;-65
2020/12/31 11:19:34;;;;;;;12.70;11.70;;;4.20;99.90;;;;;;5040114;28;20958;-65
2020/12/31 11:22:00;;;;;;;11.50;10.40;;;4.20;99.90;;;;;;5042206;28;20471;-65
2020/12/31 11:24:27;;;;;;;13.47;12.37;;;4.10;99.90;;;;;;5056214;28;20449;-70
2020/12/31 11:26:53;;;;;;;12.43;11.43;;;4.20;99.90;;;;;;5042196;28;20484;-67
2020/12/31 11:29:20;;;;;;;13.03;12.03;;;4.20;99.90;;;;;;5047369;28;20482;-64
2020/12/31 11:31:46;;;;;;;13.13;12.03;;;4.20;99.90;;;;;;5056617;28;20522;-64
2020/12/31 11:34:13;;;;;;;13.23;12.30;;;4.10;99.90;;;;;;5055502;28;20447;-64
2020/12/31 11:36:39;;;;;;;13.33;12.33;;;4.10;99.90;;;;;;5039949;28;20999;-64
2020/12/31 11:39:09;;;;;;;13.70;12.43;;;4.10;99.90;;;;;;5036733;28;20514;-64
2020/12/31 11:41:35;;;;;;;12.87;11.87;;;4.20;99.90;;;;;;5045515;28;20479;-64
2020/12/31 11:44:02;;;;;;;14.03;12.93;;;4.10;99.90;;;;;;5046820;28;20447;-63
2020/12/31 11:46:29;;;;;;;13.80;12.70;;;4.20;99.90;;;;;;5047328;28;20904;-63
2020/12/31 11:48:55;;;;;;;14.83;13.40;;;4.10;99.90;;;;;;5037398;28;20453;-63
2020/12/31 11:51:21;;;;;;;13.63;12.53;;;4.10;99.90;;;;;;5054057;28;20458;-63
2020/12/31 11:53:47;;;;;;;13.10;12.07;;;4.20;99.90;;;;;;5055192;28;20447;-64
2020/12/31 11:56:14;;;;;;;13.53;12.47;;;4.10;99.90;;;;;;5044814;28;20476;-63
2020/12/31 11:58:40;;;;;;;13.20;12.10;;;4.10;99.90;;;;;;5035194;28;20456;-63
2020/12/31 12:01:06;;;;;;;12.90;11.90;;;4.00;99.90;;;;;;5037057;28;20868;-62
2020/12/31 12:03:33;;;;;;;14.40;13.20;;;4.10;99.90;;;;;;5054970;28;20477;-63
2020/12/31 12:06:00;;;;;;;13.93;12.80;;;4.10;99.90;;;;;;5037087;28;20480;-64
2020/12/31 12:08:28;;;;;;;13.67;12.57;;;4.10;99.90;;;;;;5035712;28;20545;-63
2020/12/31 12:10:56;;;;;;;13.00;11.90;;;4.20;99.90;;;;;;5052969;28;20955;-64
2020/12/31 12:13:22;;;;;;;13.90;12.80;;;4.20;99.90;;;;;;5045923;28;20963;-63
2020/12/31 12:15:49;;;;;;;14.40;13.20;;;4.10;99.90;;;;;;5048798;28;20475;-64
2020/12/31 12:18:15;;;;;;;13.77;12.57;;;4.10;99.90;;;;;;5050495;28;20455;-64
2020/12/31 12:20:42;;;;;;;13.83;12.73;;;4.20;99.90;;;;;;5054166;28;20460;-65
2020/12/31 12:23:08;;;;;;;11.40;10.30;;;4.20;99.90;;;;;;5047066;28;21077;-67
2020/12/31 12:25:34;;;;;;;12.77;11.70;;;4.50;99.90;;;;;;5043844;28;20666;-63
2020/12/31 12:28:01;;;;;;;14.00;12.90;;;4.10;99.90;;;;;;5049145;28;20460;-63
2020/12/31 12:30:27;;;;;;;14.27;13.07;;;4.20;99.90;;;;;;5044288;28;20455;-62
2020/12/31 12:32:53;;;;;;;12.93;11.93;;;4.20;99.90;;;;;;5042973;28;20986;-63
2020/12/31 12:35:20;;;;;;;13.10;12.10;;;4.10;99.90;;;;;;5040230;28;20948;-62
2020/12/31 12:37:47;;;;;;;12.70;11.70;;;4.20;99.90;;;;;;5051376;28;20448;-61
2020/12/31 12:40:14;;;;;;;13.07;12.07;;;4.20;99.90;;;;;;5048693;28;20470;-64
2020/12/31 12:42:40;;;;;;;13.00;11.93;;;4.20;99.90;;;;;;5045649;28;20530;-62